Terminal Aerodrome Forecast
Issued by NWS Green Bay, WI

Home | Current Version | Previous Version | Graphics & Text | Print | Product List | Glossary On
Versions: 1 2 3 4 5 6 7 8 9 10 11 12 13 14
000
FTUS43 KGRB 132323
TAFGRB
TAF
KGRB 132323Z 1400/1424 VRB03KT P6SM SCT070 BKN120
      TEMPO 1404/1408 BKN070
     FM141300 25007KT P6SM FEW100 SCT200=

USA.gov is the U.S. government's official web portal to all federal, state and local government web resources and services.